createdAt,value
2024-05-09T00:00:42.103Z,4.85
2024-05-09T00:03:10.863Z,5.30
2024-05-09T00:05:41.545Z,4.88
2024-05-09T00:08:12.389Z,6.15
2024-05-09T00:10:40.729Z,5.10
2024-05-09T00:13:10.435Z,5.57
2024-05-09T00:15:38.400Z,5.40
2024-05-09T00:18:07.461Z,5.18
2024-05-09T00:20:39.350Z,4.82
2024-05-09T00:23:13.699Z,4.75
2024-05-09T00:25:45.187Z,5.47
2024-05-09T00:28:13.028Z,4.93
2024-05-09T00:30:40.537Z,5.25
2024-05-09T00:33:09.465Z,5.10
2024-05-09T00:35:38.404Z,4.85
2024-05-09T00:38:05.829Z,5.05
2024-05-09T00:40:40.502Z,5.05
2024-05-09T00:43:14.364Z,5.05
2024-05-09T00:45:43.219Z,4.43
2024-05-09T00:48:16.164Z,4.82
2024-05-09T00:50:47.102Z,5.20
2024-05-09T00:53:17.417Z,5.18
2024-05-09T00:55:46.063Z,5.03
2024-05-09T00:58:19.196Z,5.63
2024-05-09T01:00:46.785Z,5.30
2024-05-09T01:03:14.533Z,5.00
2024-05-09T01:05:43.432Z,5.00
2024-05-09T01:08:12.443Z,5.28
2024-05-09T01:10:42.851Z,5.00
2024-05-09T01:13:12.276Z,4.85
2024-05-09T01:15:39.328Z,5.00
2024-05-09T01:18:12.686Z,5.13
2024-05-09T01:20:43.453Z,5.45
2024-05-09T01:23:15.054Z,5.20
2024-05-09T01:25:45.160Z,5.47
2024-05-09T01:28:12.838Z,4.88
2024-05-09T01:30:39.862Z,5.05
2024-05-09T01:33:09.035Z,4.95
2024-05-09T01:35:38.930Z,5.00
2024-05-09T01:38:07.198Z,4.55
2024-05-09T01:40:38.582Z,5.18
2024-05-09T01:43:11.680Z,4.82
2024-05-09T01:45:40.357Z,5.00
2024-05-09T01:48:09.465Z,5.18
2024-05-09T01:50:40.594Z,5.32
2024-05-09T01:53:12.629Z,5.32
2024-05-09T01:55:40.176Z,5.80
2024-05-09T01:58:07.495Z,6.13
2024-05-09T02:00:40.071Z,5.82
2024-05-09T02:03:14.025Z,6.20
2024-05-09T02:05:45.404Z,5.93
2024-05-09T02:08:15.299Z,5.45
2024-05-09T02:10:44.171Z,5.90
2024-05-09T02:13:11.476Z,6.30
2024-05-09T02:15:38.694Z,5.93
2024-05-09T02:18:07.030Z,6.05
2024-05-09T02:20:37.570Z,5.85
2024-05-09T02:23:06.150Z,5.65
2024-05-09T02:25:34.047Z,5.78
2024-05-09T02:28:01.210Z,6.13
2024-05-09T02:32:58.319Z,6.00
2024-05-09T02:35:26.792Z,5.95
2024-05-09T02:37:53.906Z,5.97
2024-05-09T02:40:28.904Z,5.90
2024-05-09T02:43:03.096Z,5.55
2024-05-09T02:45:30.021Z,6.03
2024-05-09T02:47:57.391Z,6.18
2024-05-09T02:50:33.137Z,6.43
2024-05-09T02:53:04.943Z,6.45
2024-05-09T02:55:32.112Z,6.38
2024-05-09T02:57:59.064Z,6.57
2024-05-09T03:00:34.755Z,5.93
2024-05-09T03:03:12.780Z,5.72
2024-05-09T03:05:42.909Z,6.13
2024-05-09T03:08:10.561Z,6.03
2024-05-09T03:10:39.257Z,6.65
2024-05-09T03:13:41.834Z,5.85
2024-05-09T03:16:08.965Z,5.93
2024-05-09T03:18:36.008Z,6.57
2024-05-09T03:21:03.291Z,6.00
2024-05-09T03:23:30.328Z,7.05
2024-05-09T03:25:57.326Z,6.35
2024-05-09T03:28:24.300Z,6.70
2024-05-09T03:30:51.268Z,6.57
2024-05-09T03:33:20.001Z,6.32
2024-05-09T03:35:49.193Z,5.90
2024-05-09T03:38:16.822Z,6.32
2024-05-09T03:40:51.035Z,6.32
2024-05-09T03:43:19.890Z,5.68
2024-05-09T03:45:49.608Z,6.40
2024-05-09T03:48:17.041Z,6.30
2024-05-09T03:50:44.297Z,5.80
2024-05-09T03:53:14.697Z,6.15
2024-05-09T03:55:42.295Z,6.00
2024-05-09T03:58:09.366Z,6.20
2024-05-09T04:00:39.313Z,5.97
2024-05-09T04:03:10.618Z,5.45
2024-05-09T04:05:41.611Z,5.93
2024-05-09T04:08:10.251Z,6.22
2024-05-09T04:10:37.609Z,6.13
2024-05-09T04:13:04.926Z,6.40
2024-05-09T04:15:32.398Z,5.95
2024-05-09T04:18:00.364Z,5.40
2024-05-09T04:20:37.133Z,5.85
2024-05-09T04:23:08.783Z,6.10
2024-05-09T04:25:37.040Z,6.18
2024-05-09T04:28:04.610Z,6.75
2024-05-09T04:30:37.951Z,6.30
2024-05-09T04:33:10.741Z,6.60
2024-05-09T04:35:41.828Z,6.85
2024-05-09T04:38:09.408Z,6.70
2024-05-09T04:40:37.560Z,6.57
2024-05-09T04:43:06.800Z,6.65
2024-05-09T04:45:34.341Z,6.35
2024-05-09T04:48:02.169Z,6.72
2024-05-09T04:50:36.111Z,6.65
2024-05-09T04:53:10.837Z,7.13
2024-05-09T04:55:40.298Z,7.07
2024-05-09T04:58:11.637Z,6.95
2024-05-09T05:00:40.569Z,7.43
2024-05-09T05:03:13.889Z,7.30
2024-05-09T05:05:44.846Z,7.70
2024-05-09T05:08:18.540Z,7.97
2024-05-09T05:10:48.100Z,7.57
2024-05-09T05:13:17.919Z,7.82
2024-05-09T05:15:50.935Z,8.23
2024-05-09T05:18:18.546Z,8.35
2024-05-09T05:20:46.034Z,9.25
2024-05-09T05:23:16.298Z,9.07
2024-05-09T05:25:44.481Z,9.57
2024-05-09T05:28:11.569Z,8.90
2024-05-09T05:30:40.447Z,9.07
2024-05-09T05:33:11.546Z,8.63
2024-05-09T05:35:39.361Z,7.68
2024-05-09T05:38:08.123Z,7.90
2024-05-09T05:40:38.360Z,8.77
2024-05-09T05:43:10.934Z,8.65
2024-05-09T05:45:39.098Z,8.40
2024-05-09T05:48:07.490Z,9.45
2024-05-09T05:50:37.437Z,9.38
2024-05-09T05:53:10.179Z,10.90
2024-05-09T05:55:39.925Z,11.25
2024-05-09T05:58:11.445Z,10.95
2024-05-09T06:00:41.000Z,11.55
2024-05-09T06:03:10.230Z,11.32
2024-05-09T06:05:40.013Z,11.85
2024-05-09T06:08:07.888Z,10.48
2024-05-09T06:10:38.991Z,11.82
2024-05-09T06:13:12.464Z,11.10
2024-05-09T06:15:41.054Z,10.63
2024-05-09T06:18:10.733Z,10.82
2024-05-09T06:20:42.628Z,11.57
2024-05-09T06:23:45.589Z,10.48
2024-05-09T06:26:12.715Z,11.32
2024-05-09T06:28:39.721Z,10.75
2024-05-09T06:31:06.720Z,11.48
2024-05-09T06:33:34.165Z,11.50
2024-05-09T06:36:01.395Z,10.07
2024-05-09T06:38:29.001Z,10.63
2024-05-09T06:40:56.338Z,11.32
2024-05-09T06:43:23.434Z,9.82
2024-05-09T06:45:54.110Z,10.68
2024-05-09T06:48:22.964Z,9.75
2024-05-09T06:50:50.820Z,10.18
2024-05-09T06:53:21.986Z,9.82
2024-05-09T06:55:49.866Z,10.18
2024-05-09T06:58:16.962Z,9.85
2024-05-09T07:00:44.162Z,10.13
2024-05-09T07:03:16.504Z,9.90
2024-05-09T07:05:46.810Z,9.88
2024-05-09T07:08:14.914Z,9.95
2024-05-09T07:10:42.050Z,10.15
2024-05-09T07:13:14.154Z,9.27
2024-05-09T07:15:42.669Z,9.98
2024-05-09T07:18:20.166Z,9.15
2024-05-09T07:20:49.301Z,9.10
2024-05-09T07:23:17.752Z,10.48
2024-05-09T07:25:45.356Z,9.45
2024-05-09T07:28:15.949Z,10.07
2024-05-09T07:30:43.621Z,9.18
2024-05-09T07:33:22.192Z,8.82
2024-05-09T07:35:50.662Z,9.48
2024-05-09T07:38:17.726Z,9.68
2024-05-09T07:40:44.849Z,9.63
2024-05-09T07:43:12.910Z,9.70
2024-05-09T07:45:49.812Z,9.88
2024-05-09T07:52:37.152Z,8.68
2024-05-09T07:53:48.219Z,8.48
2024-05-09T07:56:20.116Z,8.57
2024-05-09T07:58:51.871Z,9.02
2024-05-09T08:01:20.184Z,7.82
2024-05-09T08:03:49.164Z,9.27
2024-05-09T08:06:16.341Z,8.68
2024-05-09T08:08:43.342Z,8.85
2024-05-09T08:11:10.390Z,9.10
2024-05-09T08:13:37.547Z,9.35
2024-05-09T08:16:05.263Z,10.13
2024-05-09T08:18:32.804Z,9.13
2024-05-09T08:21:00.059Z,9.27
2024-05-09T08:23:27.117Z,10.55
2024-05-09T08:25:54.060Z,8.68
2024-05-09T08:28:21.255Z,9.10
2024-05-09T08:30:48.633Z,9.23
2024-05-09T08:33:16.112Z,9.13
2024-05-09T08:35:43.125Z,8.82
2024-05-09T08:38:10.263Z,9.93
2024-05-09T08:40:38.295Z,10.35
2024-05-09T08:43:11.872Z,10.55
2024-05-09T08:45:44.094Z,8.65
2024-05-09T08:48:15.308Z,9.10
2024-05-09T08:50:45.164Z,7.85
2024-05-09T08:53:14.780Z,9.27
2024-05-09T08:55:43.812Z,9.30
2024-05-09T08:58:20.047Z,9.82
2024-05-09T09:00:48.621Z,9.48
2024-05-09T09:03:19.684Z,9.13
2024-05-09T09:06:06.369Z,9.52
2024-05-09T09:08:33.472Z,9.52
2024-05-09T09:11:00.699Z,8.90
2024-05-09T09:13:27.918Z,9.32
2024-05-09T09:15:58.471Z,9.48
2024-05-09T09:18:27.172Z,9.73
2024-05-09T09:20:54.921Z,10.05
2024-05-09T09:23:22.731Z,9.93
2024-05-09T09:25:50.626Z,10.88
2024-05-09T09:28:17.988Z,10.07
2024-05-09T09:30:45.956Z,10.93
2024-05-09T09:33:13.121Z,10.57
2024-05-09T09:35:42.339Z,9.63
2024-05-09T09:38:10.787Z,10.05
2024-05-09T09:40:46.726Z,10.35
2024-05-09T09:43:22.087Z,9.68
2024-05-09T09:45:52.913Z,10.60
2024-05-09T09:48:22.814Z,10.60
2024-05-09T09:50:52.864Z,10.23
2024-05-09T09:53:22.617Z,10.38
2024-05-09T09:55:52.199Z,10.60
2024-05-09T09:58:19.847Z,10.05
2024-05-09T10:00:47.265Z,9.57
2024-05-09T10:03:14.518Z,10.57
2024-05-09T10:05:45.338Z,11.93
2024-05-09T10:08:16.621Z,8.63
2024-05-09T10:10:50.250Z,10.43
2024-05-09T10:13:17.914Z,10.07
2024-05-09T10:15:53.868Z,10.35
2024-05-09T10:18:27.127Z,10.18
2024-05-09T10:20:56.513Z,10.23
2024-05-09T10:23:34.536Z,10.02
2024-05-09T10:26:04.801Z,10.50
2024-05-09T10:28:35.046Z,11.35
2024-05-09T10:31:14.723Z,11.13
2024-05-09T10:33:50.229Z,9.55
2024-05-09T10:36:28.972Z,8.82
2024-05-09T10:38:56.108Z,9.40
2024-05-09T10:41:23.896Z,8.07
2024-05-09T10:43:52.242Z,9.18
2024-05-09T10:46:20.020Z,9.82
2024-05-09T10:48:48.782Z,9.77
2024-05-09T10:51:19.354Z,10.70
2024-05-09T10:53:49.297Z,10.05
2024-05-09T10:56:17.238Z,11.23
2024-05-09T10:58:44.443Z,9.65
2024-05-09T11:01:13.290Z,10.73
2024-05-09T11:03:40.829Z,9.95
2024-05-09T11:06:09.773Z,10.00
2024-05-09T11:08:37.749Z,9.23
2024-05-09T11:11:07.408Z,11.88
2024-05-09T11:13:38.131Z,11.20
2024-05-09T11:16:15.864Z,11.00
2024-05-09T11:18:43.378Z,10.70
2024-05-09T11:21:14.156Z,11.07
2024-05-09T11:23:41.628Z,11.05
2024-05-09T11:26:10.584Z,11.90
2024-05-09T11:28:37.731Z,10.75
2024-05-09T11:31:09.964Z,11.43
2024-05-09T11:33:43.328Z,10.93
2024-05-09T11:36:10.703Z,10.38
2024-05-09T11:38:37.857Z,10.00
2024-05-09T11:41:05.975Z,9.88
2024-05-09T11:43:33.682Z,10.05
2024-05-09T11:46:02.647Z,9.30
2024-05-09T11:48:30.620Z,10.07
2024-05-09T11:50:57.698Z,8.80
2024-05-09T11:53:24.651Z,10.20
2024-05-09T11:55:51.723Z,10.75
2024-05-09T11:58:21.410Z,10.52
2024-05-09T12:00:48.660Z,9.82
2024-05-09T12:03:16.046Z,10.27
2024-05-09T12:05:43.339Z,9.38
2024-05-09T12:08:10.816Z,11.48
2024-05-09T12:10:38.315Z,10.18
2024-05-09T12:13:06.949Z,10.07
2024-05-09T12:15:38.098Z,9.85
2024-05-09T12:18:07.310Z,11.10
2024-05-09T12:20:38.226Z,9.90
2024-05-09T12:23:09.728Z,10.93
2024-05-09T12:25:39.069Z,10.15
2024-05-09T12:28:07.807Z,10.20
2024-05-09T12:30:39.691Z,9.80
2024-05-09T12:33:13.122Z,10.25
2024-05-09T12:35:44.210Z,10.45
2024-05-09T12:38:14.910Z,9.77
2024-05-09T12:40:42.517Z,10.15
2024-05-09T12:43:10.816Z,10.70
2024-05-09T12:45:39.898Z,10.27
2024-05-09T12:48:12.122Z,10.57
2024-05-09T12:50:40.841Z,10.07
2024-05-09T12:53:08.097Z,10.30
2024-05-09T12:55:43.924Z,9.07
2024-05-09T12:58:19.230Z,10.60
2024-05-09T13:00:46.973Z,12.13
2024-05-09T13:03:14.777Z,10.85
2024-05-09T13:05:44.634Z,10.98
2024-05-09T13:08:13.063Z,11.13
2024-05-09T13:10:40.264Z,11.13
2024-05-09T13:13:08.945Z,10.60
2024-05-09T13:15:37.141Z,10.23
2024-05-09T13:18:05.735Z,9.73
2024-05-09T13:20:35.301Z,10.15
2024-05-09T13:23:05.795Z,10.68
2024-05-09T13:25:37.772Z,10.23
2024-05-09T13:28:07.548Z,11.57
2024-05-09T13:30:40.116Z,10.63
2024-05-09T13:33:13.919Z,10.18
2024-05-09T13:35:48.839Z,10.98
2024-05-09T13:38:21.284Z,11.88
2024-05-09T13:40:49.215Z,12.43
2024-05-09T13:43:17.634Z,10.73
2024-05-09T13:45:44.942Z,10.93
2024-05-09T13:48:12.445Z,10.73
2024-05-09T13:50:39.760Z,10.23
2024-05-09T13:53:08.061Z,11.00
2024-05-09T13:55:39.128Z,12.57
2024-05-09T13:58:08.126Z,12.27
2024-05-09T14:00:44.946Z,11.18
2024-05-09T14:03:18.419Z,11.38
2024-05-09T14:05:48.036Z,12.20
2024-05-09T14:08:17.685Z,12.52
2024-05-09T14:10:47.151Z,135.63
2024-05-09T14:13:15.293Z,32.03
2024-05-09T14:15:42.650Z,15.75
2024-05-09T14:18:13.115Z,15.32
2024-05-09T14:20:42.909Z,14.23
2024-05-09T14:23:10.226Z,15.25
2024-05-09T14:25:41.871Z,14.05
2024-05-09T14:28:12.524Z,15.50
2024-05-09T14:30:40.255Z,15.73
2024-05-09T14:33:09.219Z,13.73
2024-05-09T14:35:38.499Z,15.57
2024-05-09T14:38:07.743Z,14.85
2024-05-09T14:40:41.611Z,17.58
2024-05-09T14:43:12.895Z,15.85
2024-05-09T14:45:40.866Z,19.17
2024-05-09T14:48:08.950Z,14.75
2024-05-09T14:50:39.084Z,15.65
2024-05-09T14:53:09.502Z,15.50
2024-05-09T14:55:39.294Z,16.02
2024-05-09T14:58:08.779Z,16.70
2024-05-09T15:00:46.124Z,16.52
2024-05-09T15:03:20.090Z,15.65
2024-05-09T15:05:48.582Z,14.13
2024-05-09T15:08:18.923Z,14.98
2024-05-09T15:10:46.808Z,17.67
2024-05-09T15:13:16.463Z,17.90
2024-05-09T15:15:44.421Z,19.55
2024-05-09T15:18:11.871Z,19.45
2024-05-09T15:20:40.374Z,16.55
2024-05-09T15:23:07.642Z,19.23
2024-05-09T15:25:36.557Z,18.83
2024-05-09T15:28:07.243Z,20.15
2024-05-09T15:30:35.101Z,18.27
2024-05-09T15:33:06.217Z,16.20
2024-05-09T15:35:34.355Z,17.83
2024-05-09T15:38:03.256Z,19.27
2024-05-09T15:40:37.900Z,17.48
2024-05-09T15:43:09.328Z,17.88
2024-05-09T15:45:37.832Z,16.90
2024-05-09T15:48:06.004Z,17.30
2024-05-09T15:50:38.695Z,19.00
2024-05-09T15:53:09.784Z,18.92
2024-05-09T15:55:38.126Z,19.33
2024-05-09T15:58:06.406Z,17.45
2024-05-09T16:00:39.005Z,18.92
2024-05-09T16:03:10.611Z,18.42
2024-05-09T16:05:38.533Z,17.48
2024-05-09T16:08:07.223Z,19.88
2024-05-09T16:10:35.214Z,19.33
2024-05-09T16:13:03.693Z,19.88
2024-05-09T16:15:31.585Z,20.38
2024-05-09T16:17:59.547Z,20.38
2024-05-09T16:20:34.990Z,19.15
2024-05-09T16:23:07.961Z,17.27
2024-05-09T16:25:35.221Z,19.33
2024-05-09T16:28:07.422Z,18.30
2024-05-09T16:30:38.444Z,20.27
2024-05-09T16:33:06.451Z,19.67
2024-05-09T16:35:34.578Z,19.05
2024-05-09T16:38:03.705Z,18.42
2024-05-09T16:40:37.818Z,20.23
2024-05-09T16:43:09.234Z,19.92
2024-05-09T16:45:37.667Z,19.45
2024-05-09T16:48:06.500Z,20.45
2024-05-09T16:50:35.396Z,20.75
2024-05-09T16:53:05.009Z,18.52
2024-05-09T16:55:32.865Z,20.92
2024-05-09T16:58:00.457Z,20.75
2024-05-09T17:00:38.154Z,18.35
2024-05-09T17:03:11.421Z,20.45
2024-05-09T17:05:39.920Z,22.55
2024-05-09T17:08:07.937Z,23.10
2024-05-09T17:10:36.216Z,23.92
2024-05-09T17:13:05.151Z,24.20
2024-05-09T17:15:33.811Z,23.95
2024-05-09T17:18:02.016Z,22.63
2024-05-09T17:20:33.702Z,23.05
2024-05-09T17:23:05.833Z,21.88
2024-05-09T17:25:34.947Z,23.52
2024-05-09T17:28:07.320Z,23.92
2024-05-09T17:30:38.331Z,23.52
2024-05-09T17:33:09.431Z,22.35
2024-05-09T17:35:37.636Z,21.90
2024-05-09T17:38:06.341Z,21.80
2024-05-09T17:40:36.445Z,21.75
2024-05-09T17:43:08.011Z,22.48
2024-05-09T17:45:40.795Z,21.48
2024-05-09T17:48:10.398Z,21.27
2024-05-09T17:50:38.955Z,21.92
2024-05-09T17:53:07.007Z,20.75
2024-05-09T17:55:34.546Z,19.83
2024-05-09T17:58:02.175Z,22.65
2024-05-09T18:00:37.388Z,21.83
2024-05-09T18:03:08.998Z,21.38
2024-05-09T18:05:37.396Z,22.13
2024-05-09T18:08:06.871Z,20.80
2024-05-09T18:10:37.955Z,20.52
2024-05-09T18:13:10.941Z,20.60
2024-05-09T18:15:38.961Z,20.30
2024-05-09T18:18:07.670Z,18.20
2024-05-09T18:20:42.676Z,19.10
2024-05-09T18:23:18.234Z,19.00
2024-05-09T18:25:46.725Z,19.17
2024-05-09T18:28:14.658Z,17.77
2024-05-09T18:30:41.831Z,19.25
2024-05-09T18:33:12.423Z,17.60
2024-05-09T18:35:42.939Z,16.15
2024-05-09T18:38:10.432Z,17.45
2024-05-09T18:40:38.563Z,16.70
2024-05-09T18:43:08.587Z,17.00
2024-05-09T18:45:39.664Z,16.33
2024-05-09T18:48:09.701Z,16.25
2024-05-09T18:50:40.112Z,16.48
2024-05-09T18:53:13.036Z,16.30
2024-05-09T18:55:41.984Z,15.80
2024-05-09T18:58:09.046Z,15.73
2024-05-09T19:00:38.951Z,17.10
2024-05-09T19:03:11.093Z,19.40
2024-05-09T19:05:41.482Z,19.58
2024-05-09T19:08:09.148Z,19.13
2024-05-09T19:10:39.094Z,18.13
2024-05-09T19:13:11.660Z,18.33
2024-05-09T19:15:44.128Z,17.27
2024-05-09T19:18:13.813Z,17.23
2024-05-09T19:20:41.543Z,17.65
2024-05-09T19:23:08.874Z,17.17
2024-05-09T19:25:36.353Z,16.80
2024-05-09T19:28:04.729Z,17.52
2024-05-09T19:30:38.870Z,16.45
2024-05-09T19:33:11.419Z,15.55
2024-05-09T19:35:39.603Z,15.25
2024-05-09T19:38:06.914Z,16.15
2024-05-09T19:40:35.157Z,14.02
2024-05-09T19:43:04.778Z,15.05
2024-05-09T19:45:33.261Z,14.90
2024-05-09T19:48:01.161Z,15.40
2024-05-09T19:50:36.978Z,14.45
2024-05-09T19:53:10.704Z,15.45
2024-05-09T19:55:38.324Z,15.68
2024-05-09T19:58:07.342Z,15.98
2024-05-09T20:00:39.913Z,16.20
2024-05-09T20:03:10.255Z,18.15
2024-05-09T20:05:38.469Z,17.70
2024-05-09T20:08:07.017Z,18.88
2024-05-09T20:10:35.873Z,18.40
2024-05-09T20:13:06.601Z,18.30
2024-05-09T20:15:36.406Z,19.50
2024-05-09T20:18:04.806Z,20.63
2024-05-09T20:20:37.785Z,18.15
2024-05-09T20:23:09.666Z,18.52
2024-05-09T20:25:37.171Z,18.67
2024-05-09T20:28:06.031Z,20.30
2024-05-09T20:30:34.886Z,20.02
2024-05-09T20:33:05.306Z,18.90
2024-05-09T20:35:33.950Z,20.38
2024-05-09T20:38:02.550Z,18.80
2024-05-09T20:40:34.594Z,19.05
2024-05-09T20:43:06.242Z,19.58
2024-05-09T20:45:33.957Z,19.38
2024-05-09T20:48:01.595Z,19.40
2024-05-09T20:50:36.738Z,19.55
2024-05-09T20:53:14.749Z,20.05
2024-05-09T20:55:45.789Z,21.20
2024-05-09T20:58:13.625Z,21.13
2024-05-09T21:00:44.431Z,21.05
2024-05-09T21:03:16.417Z,21.00
2024-05-09T21:05:44.606Z,21.95
2024-05-09T21:08:11.743Z,22.80
2024-05-09T21:10:39.237Z,21.73
2024-05-09T21:13:39.773Z,21.15
2024-05-09T21:16:07.530Z,20.88
2024-05-09T21:18:34.536Z,21.75
2024-05-09T21:21:01.599Z,21.45
2024-05-09T21:23:28.521Z,20.90
2024-05-09T21:25:55.467Z,23.05
2024-05-09T21:28:22.445Z,22.10
2024-05-09T21:30:49.434Z,23.10
2024-05-09T21:33:16.570Z,22.98
2024-05-09T21:35:44.492Z,23.63
2024-05-09T21:38:13.816Z,23.00
2024-05-09T21:40:41.174Z,23.15
2024-05-09T21:43:08.579Z,22.88
2024-05-09T21:45:36.975Z,23.35
2024-05-09T21:48:05.836Z,23.42
2024-05-09T21:50:39.718Z,22.10
2024-05-09T21:53:12.962Z,20.95
2024-05-09T21:55:41.482Z,20.38
2024-05-09T21:58:08.651Z,21.45
2024-05-09T22:00:39.239Z,20.92
2024-05-09T22:03:07.841Z,20.67
2024-05-09T22:05:35.876Z,19.77
2024-05-09T22:08:03.719Z,20.17
2024-05-09T22:10:34.805Z,20.40
2024-05-09T22:13:05.409Z,19.30
2024-05-09T22:15:36.984Z,19.98
2024-05-09T22:18:06.232Z,19.98
2024-05-09T22:20:37.729Z,19.88
2024-05-09T22:23:08.192Z,20.02
2024-05-09T22:25:37.142Z,20.30
2024-05-09T22:28:05.382Z,20.25
2024-05-09T22:30:37.168Z,20.17
2024-05-09T22:33:11.347Z,20.27
2024-05-09T22:35:40.587Z,20.80
2024-05-09T22:38:08.287Z,19.35
2024-05-09T22:43:05.905Z,21.00
2024-05-09T22:45:33.092Z,20.60
2024-05-09T22:48:00.468Z,20.35
2024-05-09T22:50:32.809Z,20.08
2024-05-09T22:53:00.918Z,20.15
2024-05-09T22:55:28.002Z,19.80
2024-05-09T22:57:55.176Z,20.35
2024-05-09T23:00:30.877Z,19.77
2024-05-09T23:03:01.367Z,20.23
2024-05-09T23:05:28.930Z,20.33
2024-05-09T23:07:56.137Z,19.90
2024-05-09T23:10:31.091Z,21.15
2024-05-09T23:13:02.989Z,20.88
2024-05-09T23:15:30.225Z,20.42
2024-05-09T23:17:58.117Z,20.48
2024-05-09T23:20:35.564Z,20.02
2024-05-09T23:23:06.855Z,20.98
2024-05-09T23:25:34.576Z,19.92
2024-05-09T23:28:01.855Z,19.33
2024-05-09T23:30:36.834Z,21.02
2024-05-09T23:33:08.610Z,19.67
2024-05-09T23:35:35.853Z,19.65
2024-05-09T23:38:02.983Z,20.42
2024-05-09T23:40:38.311Z,21.27
2024-05-09T23:43:12.423Z,21.45
2024-05-09T23:45:41.655Z,20.65
2024-05-09T23:48:09.455Z,19.83
2024-05-09T23:50:38.607Z,19.80
2024-05-09T23:53:08.772Z,19.45
2024-05-09T23:55:37.168Z,19.45
2024-05-09T23:58:04.590Z,19.65
